sensor_id;sensor_type;location;lat;lon;timestamp;temperature;humidity
28863;DHT22;15994;51.796;13.006;2023-05-31T00:00:03;13.30;94.50
28863;DHT22;15994;51.796;13.006;2023-05-31T00:02:31;13.30;94.20
28863;DHT22;15994;51.796;13.006;2023-05-31T00:04:58;13.20;94.30
28863;DHT22;15994;51.796;13.006;2023-05-31T00:07:25;13.20;94.40
28863;DHT22;15994;51.796;13.006;2023-05-31T00:09:51;13.10;94.40
28863;DHT22;15994;51.796;13.006;2023-05-31T00:12:18;13.10;94.50
28863;DHT22;15994;51.796;13.006;2023-05-31T00:14:46;13.10;94.70
28863;DHT22;15994;51.796;13.006;2023-05-31T00:17:13;13.00;94.70
28863;DHT22;15994;51.796;13.006;2023-05-31T00:19:39;13.00;94.90
28863;DHT22;15994;51.796;13.006;2023-05-31T00:22:06;13.00;95.00
28863;DHT22;15994;51.796;13.006;2023-05-31T00:24:33;12.90;95.00
28863;DHT22;15994;51.796;13.006;2023-05-31T00:26:59;12.90;95.10
28863;DHT22;15994;51.796;13.006;2023-05-31T00:29:26;12.90;95.30
28863;DHT22;15994;51.796;13.006;2023-05-31T00:31:54;12.80;95.30
28863;DHT22;15994;51.796;13.006;2023-05-31T00:34:20;12.80;95.50
28863;DHT22;15994;51.796;13.006;2023-05-31T00:36:47;12.80;95.60
28863;DHT22;15994;51.796;13.006;2023-05-31T00:39:14;12.70;95.70
28863;DHT22;15994;51.796;13.006;2023-05-31T00:41:40;12.70;95.80
28863;DHT22;15994;51.796;13.006;2023-05-31T00:44:07;12.70;95.90
28863;DHT22;15994;51.796;13.006;2023-05-31T00:46:36;12.70;96.60
28863;DHT22;15994;51.796;13.006;2023-05-31T00:49:03;12.70;96.60
28863;DHT22;15994;51.796;13.006;2023-05-31T00:51:31;12.70;97.70
28863;DHT22;15994;51.796;13.006;2023-05-31T00:53:59;12.60;97.50
28863;DHT22;15994;51.796;13.006;2023-05-31T00:56:26;12.70;99.60
28863;DHT22;15994;51.796;13.006;2023-05-31T00:58:57;12.70;99.40
28863;DHT22;15994;51.796;13.006;2023-05-31T01:01:25;12.50;96.40
28863;DHT22;15994;51.796;13.006;2023-05-31T01:03:58;12.50;96.40
28863;DHT22;15994;51.796;13.006;2023-05-31T01:06:26;12.50;96.60
28863;DHT22;15994;51.796;13.006;2023-05-31T01:08:58;12.40;96.70
28863;DHT22;15994;51.796;13.006;2023-05-31T01:17:30;12.30;97.00
28863;DHT22;15994;51.796;13.006;2023-05-31T01:20:01;12.40;98.70
28863;DHT22;15994;51.796;13.006;2023-05-31T01:22:54;12.30;99.90
28863;DHT22;15994;51.796;13.006;2023-05-31T01:28:30;12.30;99.90
28863;DHT22;15994;51.796;13.006;2023-05-31T01:31:02;12.30;99.90
28863;DHT22;15994;51.796;13.006;2023-05-31T01:33:29;12.30;99.90
28863;DHT22;15994;51.796;13.006;2023-05-31T01:35:56;12.30;99.90
28863;DHT22;15994;51.796;13.006;2023-05-31T01:38:22;12.20;99.90
28863;DHT22;15994;51.796;13.006;2023-05-31T01:40:49;12.20;99.90
28863;DHT22;15994;51.796;13.006;2023-05-31T01:43:17;12.20;99.90
28863;DHT22;15994;51.796;13.006;2023-05-31T01:45:44;12.20;99.90
28863;DHT22;15994;51.796;13.006;2023-05-31T01:48:11;12.10;99.90
28863;DHT22;15994;51.796;13.006;2023-05-31T01:50:40;12.10;99.90
28863;DHT22;15994;51.796;13.006;2023-05-31T01:53:07;12.10;99.90
28863;DHT22;15994;51.796;13.006;2023-05-31T01:55:34;12.10;99.90
28863;DHT22;15994;51.796;13.006;2023-05-31T01:58:01;12.10;99.90
28863;DHT22;15994;51.796;13.006;2023-05-31T02:00:28;12.10;99.20
28863;DHT22;15994;51.796;13.006;2023-05-31T02:02:55;12.10;99.90
28863;DHT22;15994;51.796;13.006;2023-05-31T02:05:23;12.00;99.90
28863;DHT22;15994;51.796;13.006;2023-05-31T02:07:49;12.00;99.90
28863;DHT22;15994;51.796;13.006;2023-05-31T02:10:16;11.90;99.90
28863;DHT22;15994;51.796;13.006;2023-05-31T02:12:43;12.00;99.90
28863;DHT22;15994;51.796;13.006;2023-05-31T02:15:10;12.00;99.80
28863;DHT22;15994;51.796;13.006;2023-05-31T02:17:43;12.00;99.30
28863;DHT22;15994;51.796;13.006;2023-05-31T02:20:11;11.90;98.90
28863;DHT22;15994;51.796;13.006;2023-05-31T02:22:39;11.80;98.80
28863;DHT22;15994;51.796;13.006;2023-05-31T02:25:11;11.80;98.80
28863;DHT22;15994;51.796;13.006;2023-05-31T02:27:38;11.80;99.10
28863;DHT22;15994;51.796;13.006;2023-05-31T02:30:07;11.80;99.20
28863;DHT22;15994;51.796;13.006;2023-05-31T02:32:34;11.70;99.00
28863;DHT22;15994;51.796;13.006;2023-05-31T02:35:06;11.70;99.10
28863;DHT22;15994;51.796;13.006;2023-05-31T02:37:34;11.70;99.00
28863;DHT22;15994;51.796;13.006;2023-05-31T02:40:03;11.60;99.10
28863;DHT22;15994;51.796;13.006;2023-05-31T02:42:32;11.60;99.00
28863;DHT22;15994;51.796;13.006;2023-05-31T02:44:59;11.60;98.90
28863;DHT22;15994;51.796;13.006;2023-05-31T02:47:25;11.60;99.00
28863;DHT22;15994;51.796;13.006;2023-05-31T02:49:52;11.50;99.00
28863;DHT22;15994;51.796;13.006;2023-05-31T02:52:19;11.50;99.10
28863;DHT22;15994;51.796;13.006;2023-05-31T02:54:46;11.50;99.40
28863;DHT22;15994;51.796;13.006;2023-05-31T02:57:12;11.50;99.90
28863;DHT22;15994;51.796;13.006;2023-05-31T02:59:39;11.50;99.90
28863;DHT22;15994;51.796;13.006;2023-05-31T03:02:06;11.50;99.90
28863;DHT22;15994;51.796;13.006;2023-05-31T03:04:32;11.40;99.90
28863;DHT22;15994;51.796;13.006;2023-05-31T03:06:59;11.40;99.90
28863;DHT22;15994;51.796;13.006;2023-05-31T03:09:26;11.40;99.90
28863;DHT22;15994;51.796;13.006;2023-05-31T03:11:53;11.30;99.90
28863;DHT22;15994;51.796;13.006;2023-05-31T03:14:19;11.30;99.90
28863;DHT22;15994;51.796;13.006;2023-05-31T03:16:46;11.30;99.90
28863;DHT22;15994;51.796;13.006;2023-05-31T03:19:13;11.30;99.90
28863;DHT22;15994;51.796;13.006;2023-05-31T03:21:39;11.30;99.90
28863;DHT22;15994;51.796;13.006;2023-05-31T03:24:06;11.30;99.90
28863;DHT22;15994;51.796;13.006;2023-05-31T03:26:32;11.20;99.90
28863;DHT22;15994;51.796;13.006;2023-05-31T03:28:59;11.20;99.90
28863;DHT22;15994;51.796;13.006;2023-05-31T03:31:27;11.20;99.90
28863;DHT22;15994;51.796;13.006;2023-05-31T03:33:54;11.20;99.90
28863;DHT22;15994;51.796;13.006;2023-05-31T03:36:21;11.20;99.90
28863;DHT22;15994;51.796;13.006;2023-05-31T03:38:47;11.30;99.90
28863;DHT22;15994;51.796;13.006;2023-05-31T03:41:15;11.30;99.90
28863;DHT22;15994;51.796;13.006;2023-05-31T03:43:42;11.30;99.90
28863;DHT22;15994;51.796;13.006;2023-05-31T03:46:09;11.20;99.90
28863;DHT22;15994;51.796;13.006;2023-05-31T03:48:36;11.30;99.90
28863;DHT22;15994;51.796;13.006;2023-05-31T03:51:03;11.40;99.90
28863;DHT22;15994;51.796;13.006;2023-05-31T03:53:29;11.30;99.90
28863;DHT22;15994;51.796;13.006;2023-05-31T03:55:56;11.30;99.90
28863;DHT22;15994;51.796;13.006;2023-05-31T03:58:24;11.40;99.90
28863;DHT22;15994;51.796;13.006;2023-05-31T04:00:51;11.40;99.90
28863;DHT22;15994;51.796;13.006;2023-05-31T04:03:17;11.40;99.90
28863;DHT22;15994;51.796;13.006;2023-05-31T04:05:44;11.50;99.90
28863;DHT22;15994;51.796;13.006;2023-05-31T04:08:11;11.50;99.90
28863;DHT22;15994;51.796;13.006;2023-05-31T04:10:38;11.60;99.90
28863;DHT22;15994;51.796;13.006;2023-05-31T04:13:05;11.60;99.90
28863;DHT22;15994;51.796;13.006;2023-05-31T04:15:32;11.60;99.90
28863;DHT22;15994;51.796;13.006;2023-05-31T04:17:58;11.70;99.90
28863;DHT22;15994;51.796;13.006;2023-05-31T04:20:25;11.70;99.90
28863;DHT22;15994;51.796;13.006;2023-05-31T04:22:52;11.80;99.90
28863;DHT22;15994;51.796;13.006;2023-05-31T04:25:21;11.80;99.90
28863;DHT22;15994;51.796;13.006;2023-05-31T04:27:48;11.90;99.90
28863;DHT22;15994;51.796;13.006;2023-05-31T04:30:15;11.90;99.90
28863;DHT22;15994;51.796;13.006;2023-05-31T04:32:42;11.90;99.90
28863;DHT22;15994;51.796;13.006;2023-05-31T04:35:12;11.90;99.90
28863;DHT22;15994;51.796;13.006;2023-05-31T04:37:39;12.00;99.90
28863;DHT22;15994;51.796;13.006;2023-05-31T04:40:07;12.00;99.90
28863;DHT22;15994;51.796;13.006;2023-05-31T04:42:35;12.10;99.90
28863;DHT22;15994;51.796;13.006;2023-05-31T04:45:03;12.20;99.90
28863;DHT22;15994;51.796;13.006;2023-05-31T04:47:35;12.30;99.90
28863;DHT22;15994;51.796;13.006;2023-05-31T04:50:02;12.40;99.90
28863;DHT22;15994;51.796;13.006;2023-05-31T04:52:30;12.40;99.90
28863;DHT22;15994;51.796;13.006;2023-05-31T04:55:01;12.40;99.90
28863;DHT22;15994;51.796;13.006;2023-05-31T04:57:28;12.50;99.90
28863;DHT22;15994;51.796;13.006;2023-05-31T04:59:55;12.50;99.90
28863;DHT22;15994;51.796;13.006;2023-05-31T05:02:23;12.70;99.90
28863;DHT22;15994;51.796;13.006;2023-05-31T05:04:52;12.70;99.90
28863;DHT22;15994;51.796;13.006;2023-05-31T05:07:20;12.80;99.90
28863;DHT22;15994;51.796;13.006;2023-05-31T05:09:47;12.90;99.90
28863;DHT22;15994;51.796;13.006;2023-05-31T05:12:14;12.90;99.90
28863;DHT22;15994;51.796;13.006;2023-05-31T05:14:40;13.10;99.90
28863;DHT22;15994;51.796;13.006;2023-05-31T05:17:08;13.20;99.90
28863;DHT22;15994;51.796;13.006;2023-05-31T05:19:36;13.20;99.90
28863;DHT22;15994;51.796;13.006;2023-05-31T05:22:04;13.30;99.90
28863;DHT22;15994;51.796;13.006;2023-05-31T05:24:31;13.40;99.90
28863;DHT22;15994;51.796;13.006;2023-05-31T05:26:57;13.50;99.90
28863;DHT22;15994;51.796;13.006;2023-05-31T05:29:24;13.60;99.90
28863;DHT22;15994;51.796;13.006;2023-05-31T05:31:51;13.70;99.90
28863;DHT22;15994;51.796;13.006;2023-05-31T05:34:18;13.80;99.90
28863;DHT22;15994;51.796;13.006;2023-05-31T05:36:46;14.00;99.90
28863;DHT22;15994;51.796;13.006;2023-05-31T05:39:12;14.00;99.90
28863;DHT22;15994;51.796;13.006;2023-05-31T05:41:39;14.10;99.90
28863;DHT22;15994;51.796;13.006;2023-05-31T05:44:06;14.20;99.90
28863;DHT22;15994;51.796;13.006;2023-05-31T05:46:33;14.20;99.90
28863;DHT22;15994;51.796;13.006;2023-05-31T05:49:00;14.40;99.90
28863;DHT22;15994;51.796;13.006;2023-05-31T05:51:27;14.50;99.90
28863;DHT22;15994;51.796;13.006;2023-05-31T05:53:54;14.40;99.90
28863;DHT22;15994;51.796;13.006;2023-05-31T05:56:20;14.50;99.90
28863;DHT22;15994;51.796;13.006;2023-05-31T09:21:10;21.90;99.90
28863;DHT22;15994;51.796;13.006;2023-05-31T09:23:37;21.80;99.90
28863;DHT22;15994;51.796;13.006;2023-05-31T09:31:07;21.70;77.20
28863;DHT22;15994;51.796;13.006;2023-05-31T09:33:45;21.80;76.30
28863;DHT22;15994;51.796;13.006;2023-05-31T09:36:14;21.80;77.10
28863;DHT22;15994;51.796;13.006;2023-05-31T09:38:48;21.90;78.40
28863;DHT22;15994;51.796;13.006;2023-05-31T09:41:20;22.20;77.40
28863;DHT22;15994;51.796;13.006;2023-05-31T09:43:48;22.00;74.50
28863;DHT22;15994;51.796;13.006;2023-05-31T09:46:16;22.20;73.70
28863;DHT22;15994;51.796;13.006;2023-05-31T09:48:44;22.30;75.00
28863;DHT22;15994;51.796;13.006;2023-05-31T09:51:12;22.30;74.90
28863;DHT22;15994;51.796;13.006;2023-05-31T09:53:43;22.20;75.80
28863;DHT22;15994;51.796;13.006;2023-05-31T09:56:17;22.20;76.90
28863;DHT22;15994;51.796;13.006;2023-05-31T09:58:44;22.40;76.90
28863;DHT22;15994;51.796;13.006;2023-05-31T10:01:11;22.40;77.10
28863;DHT22;15994;51.796;13.006;2023-05-31T10:03:38;22.80;75.70
28863;DHT22;15994;51.796;13.006;2023-05-31T10:06:05;22.80;76.00
28863;DHT22;15994;51.796;13.006;2023-05-31T10:08:34;22.80;76.40
28863;DHT22;15994;51.796;13.006;2023-05-31T10:11:01;22.90;76.40
28863;DHT22;15994;51.796;13.006;2023-05-31T10:13:29;23.00;74.30
28863;DHT22;15994;51.796;13.006;2023-05-31T10:16:01;23.10;76.00
28863;DHT22;15994;51.796;13.006;2023-05-31T10:19:00;23.00;77.60
28863;DHT22;15994;51.796;13.006;2023-05-31T10:21:33;23.00;75.90
28863;DHT22;15994;51.796;13.006;2023-05-31T10:24:08;23.00;75.00
28863;DHT22;15994;51.796;13.006;2023-05-31T10:29:35;23.10;76.50
28863;DHT22;15994;51.796;13.006;2023-05-31T10:32:10;23.10;75.10
28863;DHT22;15994;51.796;13.006;2023-05-31T10:34:39;23.10;74.70
28863;DHT22;15994;51.796;13.006;2023-05-31T10:37:07;23.30;76.80
28863;DHT22;15994;51.796;13.006;2023-05-31T10:40:49;23.20;74.30
28863;DHT22;15994;51.796;13.006;2023-05-31T10:45:29;23.10;75.30
28863;DHT22;15994;51.796;13.006;2023-05-31T10:51:00;23.50;74.90
28863;DHT22;15994;51.796;13.006;2023-05-31T10:53:29;23.40;74.80
28863;DHT22;15994;51.796;13.006;2023-05-31T10:56:10;23.50;74.30
28863;DHT22;15994;51.796;13.006;2023-05-31T10:58:43;23.50;72.40
28863;DHT22;15994;51.796;13.006;2023-05-31T11:01:16;23.20;72.40
28863;DHT22;15994;51.796;13.006;2023-05-31T11:03:51;23.40;74.00
28863;DHT22;15994;51.796;13.006;2023-05-31T11:06:23;23.10;72.50
28863;DHT22;15994;51.796;13.006;2023-05-31T11:09:04;23.20;73.70
28863;DHT22;15994;51.796;13.006;2023-05-31T11:19:21;23.70;70.80
28863;DHT22;15994;51.796;13.006;2023-05-31T11:21:53;23.60;70.60
28863;DHT22;15994;51.796;13.006;2023-05-31T11:27:04;23.80;70.50
28863;DHT22;15994;51.796;13.006;2023-05-31T11:32:20;23.70;70.00
28863;DHT22;15994;51.796;13.006;2023-05-31T11:34:59;23.60;69.10
28863;DHT22;15994;51.796;13.006;2023-05-31T11:37:32;23.60;68.40
28863;DHT22;15994;51.796;13.006;2023-05-31T11:40:01;23.90;69.80
28863;DHT22;15994;51.796;13.006;2023-05-31T11:42:31;23.80;70.20
28863;DHT22;15994;51.796;13.006;2023-05-31T11:45:06;24.00;68.20
28863;DHT22;15994;51.796;13.006;2023-05-31T11:50:36;23.90;67.60
28863;DHT22;15994;51.796;13.006;2023-05-31T11:53:03;24.00;68.10
28863;DHT22;15994;51.796;13.006;2023-05-31T11:55:31;24.10;68.30
28863;DHT22;15994;51.796;13.006;2023-05-31T11:58:00;24.30;69.20
28863;DHT22;15994;51.796;13.006;2023-05-31T12:00:27;24.30;68.30
28863;DHT22;15994;51.796;13.006;2023-05-31T12:02:55;24.30;66.60
28863;DHT22;15994;51.796;13.006;2023-05-31T12:05:23;24.40;67.70
28863;DHT22;15994;51.796;13.006;2023-05-31T12:07:55;24.70;66.30
28863;DHT22;15994;51.796;13.006;2023-05-31T12:10:26;24.90;66.80
28863;DHT22;15994;51.796;13.006;2023-05-31T12:12:53;25.00;67.70
28863;DHT22;15994;51.796;13.006;2023-05-31T12:15:19;25.20;68.60
28863;DHT22;15994;51.796;13.006;2023-05-31T12:17:46;25.20;64.70
28863;DHT22;15994;51.796;13.006;2023-05-31T12:20:13;25.10;65.60
28863;DHT22;15994;51.796;13.006;2023-05-31T12:22:40;25.20;64.90
28863;DHT22;15994;51.796;13.006;2023-05-31T12:25:07;25.20;66.70
28863;DHT22;15994;51.796;13.006;2023-05-31T12:27:34;25.60;65.90
28863;DHT22;15994;51.796;13.006;2023-05-31T12:30:03;25.60;65.10
28863;DHT22;15994;51.796;13.006;2023-05-31T12:32:31;25.40;65.20
28863;DHT22;15994;51.796;13.006;2023-05-31T12:35:08;25.50;65.60
28863;DHT22;15994;51.796;13.006;2023-05-31T12:37:38;25.80;67.10
28863;DHT22;15994;51.796;13.006;2023-05-31T12:40:17;25.90;65.90
28863;DHT22;15994;51.796;13.006;2023-05-31T12:42:46;26.00;66.30
28863;DHT22;15994;51.796;13.006;2023-05-31T12:45:17;26.00;65.20
28863;DHT22;15994;51.796;13.006;2023-05-31T12:47:44;25.80;65.10
28863;DHT22;15994;51.796;13.006;2023-05-31T12:50:11;25.80;64.60
28863;DHT22;15994;51.796;13.006;2023-05-31T12:52:38;25.60;64.40
28863;DHT22;15994;51.796;13.006;2023-05-31T12:55:06;25.60;65.90
28863;DHT22;15994;51.796;13.006;2023-05-31T12:57:33;25.40;65.60
28863;DHT22;15994;51.796;13.006;2023-05-31T13:00:05;25.20;66.70
28863;DHT22;15994;51.796;13.006;2023-05-31T13:02:35;25.00;65.50
28863;DHT22;15994;51.796;13.006;2023-05-31T13:05:05;24.90;67.60
28863;DHT22;15994;51.796;13.006;2023-05-31T13:07:32;25.00;67.30
28863;DHT22;15994;51.796;13.006;2023-05-31T13:09:59;24.90;67.10
28863;DHT22;15994;51.796;13.006;2023-05-31T13:12:26;24.70;65.40
28863;DHT22;15994;51.796;13.006;2023-05-31T13:14:53;24.70;67.10
28863;DHT22;15994;51.796;13.006;2023-05-31T13:17:20;24.70;66.60
28863;DHT22;15994;51.796;13.006;2023-05-31T13:19:47;24.60;66.10
28863;DHT22;15994;51.796;13.006;2023-05-31T13:22:14;24.90;67.40
28863;DHT22;15994;51.796;13.006;2023-05-31T13:24:41;24.90;65.90
28863;DHT22;15994;51.796;13.006;2023-05-31T13:27:08;25.10;66.70
28863;DHT22;15994;51.796;13.006;2023-05-31T13:29:34;25.20;66.10
28863;DHT22;15994;51.796;13.006;2023-05-31T13:32:01;25.40;66.40
28863;DHT22;15994;51.796;13.006;2023-05-31T13:34:28;25.50;65.90
28863;DHT22;15994;51.796;13.006;2023-05-31T13:36:54;25.30;63.50
28863;DHT22;15994;51.796;13.006;2023-05-31T13:39:22;25.40;65.20
28863;DHT22;15994;51.796;13.006;2023-05-31T13:41:49;25.60;63.70
28863;DHT22;15994;51.796;13.006;2023-05-31T13:44:15;25.40;64.20
28863;DHT22;15994;51.796;13.006;2023-05-31T13:46:43;25.30;62.30
28863;DHT22;15994;51.796;13.006;2023-05-31T13:49:10;25.60;64.30
28863;DHT22;15994;51.796;13.006;2023-05-31T13:51:41;25.60;63.30
28863;DHT22;15994;51.796;13.006;2023-05-31T13:54:09;25.50;61.40
28863;DHT22;15994;51.796;13.006;2023-05-31T13:56:35;25.70;63.20
28863;DHT22;15994;51.796;13.006;2023-05-31T13:59:02;25.70;62.90
28863;DHT22;15994;51.796;13.006;2023-05-31T14:01:29;25.80;61.10
28863;DHT22;15994;51.796;13.006;2023-05-31T14:03:55;25.50;60.80
28863;DHT22;15994;51.796;13.006;2023-05-31T14:06:23;25.60;61.60
28863;DHT22;15994;51.796;13.006;2023-05-31T14:08:49;25.70;60.70
28863;DHT22;15994;51.796;13.006;2023-05-31T14:11:16;25.80;60.90
28863;DHT22;15994;51.796;13.006;2023-05-31T14:13:46;25.70;60.50
28863;DHT22;15994;51.796;13.006;2023-05-31T14:16:14;25.60;60.80
28863;DHT22;15994;51.796;13.006;2023-05-31T14:18:43;25.60;59.30
28863;DHT22;15994;51.796;13.006;2023-05-31T14:21:10;25.80;60.80
28863;DHT22;15994;51.796;13.006;2023-05-31T14:23:37;25.70;59.80
28863;DHT22;15994;51.796;13.006;2023-05-31T14:26:04;25.60;59.70
28863;DHT22;15994;51.796;13.006;2023-05-31T14:28:30;25.40;59.20
28863;DHT22;15994;51.796;13.006;2023-05-31T14:30:57;25.40;60.10
28863;DHT22;15994;51.796;13.006;2023-05-31T14:33:25;25.40;59.70
28863;DHT22;15994;51.796;13.006;2023-05-31T14:35:53;25.40;61.70
28863;DHT22;15994;51.796;13.006;2023-05-31T14:38:20;25.50;60.20
28863;DHT22;15994;51.796;13.006;2023-05-31T14:40:47;25.60;60.00
28863;DHT22;15994;51.796;13.006;2023-05-31T14:43:16;25.40;60.60
28863;DHT22;15994;51.796;13.006;2023-05-31T14:45:43;25.60;59.60
28863;DHT22;15994;51.796;13.006;2023-05-31T14:48:10;25.80;60.10
28863;DHT22;15994;51.796;13.006;2023-05-31T14:50:36;25.80;59.80
28863;DHT22;15994;51.796;13.006;2023-05-31T14:53:03;26.00;61.20
28863;DHT22;15994;51.796;13.006;2023-05-31T14:55:30;26.10;61.10
28863;DHT22;15994;51.796;13.006;2023-05-31T14:57:57;26.20;60.30
28863;DHT22;15994;51.796;13.006;2023-05-31T15:00:24;26.10;59.90
28863;DHT22;15994;51.796;13.006;2023-05-31T15:02:51;26.00;60.50
28863;DHT22;15994;51.796;13.006;2023-05-31T15:05:18;26.00;61.50
28863;DHT22;15994;51.796;13.006;2023-05-31T15:07:44;26.00;60.70
28863;DHT22;15994;51.796;13.006;2023-05-31T15:10:11;26.00;61.20
28863;DHT22;15994;51.796;13.006;2023-05-31T15:12:38;26.10;62.00
28863;DHT22;15994;51.796;13.006;2023-05-31T15:15:05;26.20;61.60
28863;DHT22;15994;51.796;13.006;2023-05-31T15:17:32;26.20;58.30
28863;DHT22;15994;51.796;13.006;2023-05-31T15:19:59;26.20;59.20
28863;DHT22;15994;51.796;13.006;2023-05-31T15:22:26;26.20;58.90
28863;DHT22;15994;51.796;13.006;2023-05-31T15:24:52;26.30;59.60
28863;DHT22;15994;51.796;13.006;2023-05-31T15:27:19;26.50;59.00
28863;DHT22;15994;51.796;13.006;2023-05-31T15:29:46;26.50;58.40
28863;DHT22;15994;51.796;13.006;2023-05-31T15:32:12;26.30;58.20
28863;DHT22;15994;51.796;13.006;2023-05-31T15:34:39;26.50;59.00
28863;DHT22;15994;51.796;13.006;2023-05-31T15:37:06;26.90;59.60
28863;DHT22;15994;51.796;13.006;2023-05-31T15:39:32;27.20;59.20
28863;DHT22;15994;51.796;13.006;2023-05-31T15:42:00;27.00;59.40
28863;DHT22;15994;51.796;13.006;2023-05-31T15:44:29;27.00;60.50
28863;DHT22;15994;51.796;13.006;2023-05-31T15:46:56;27.10;59.00
28863;DHT22;15994;51.796;13.006;2023-05-31T15:49:23;27.20;60.20
28863;DHT22;15994;51.796;13.006;2023-05-31T15:54:16;28.00;57.90
28863;DHT22;15994;51.796;13.006;2023-05-31T15:56:47;28.20;58.30
28863;DHT22;15994;51.796;13.006;2023-05-31T15:59:14;28.20;58.50
28863;DHT22;15994;51.796;13.006;2023-05-31T16:01:41;28.40;57.00
28863;DHT22;15994;51.796;13.006;2023-05-31T16:04:07;28.40;56.90
28863;DHT22;15994;51.796;13.006;2023-05-31T16:06:34;28.20;58.40
28863;DHT22;15994;51.796;13.006;2023-05-31T16:09:01;28.50;58.30
28863;DHT22;15994;51.796;13.006;2023-05-31T16:11:28;28.80;58.10
28863;DHT22;15994;51.796;13.006;2023-05-31T16:13:56;28.50;56.20
28863;DHT22;15994;51.796;13.006;2023-05-31T16:16:23;28.50;56.60
28863;DHT22;15994;51.796;13.006;2023-05-31T16:18:49;28.30;56.70
28863;DHT22;15994;51.796;13.006;2023-05-31T16:21:16;28.00;56.70
28863;DHT22;15994;51.796;13.006;2023-05-31T16:23:45;27.80;56.30
28863;DHT22;15994;51.796;13.006;2023-05-31T16:26:11;27.30;55.90
28863;DHT22;15994;51.796;13.006;2023-05-31T16:28:39;27.80;56.60
28863;DHT22;15994;51.796;13.006;2023-05-31T16:31:07;28.20;56.40
28863;DHT22;15994;51.796;13.006;2023-05-31T16:33:34;28.20;55.50
28863;DHT22;15994;51.796;13.006;2023-05-31T16:36:00;27.70;56.00
28863;DHT22;15994;51.796;13.006;2023-05-31T16:38:28;27.90;56.10
28863;DHT22;15994;51.796;13.006;2023-05-31T16:40:55;28.10;56.40
28863;DHT22;15994;51.796;13.006;2023-05-31T16:43:22;28.00;55.00
28863;DHT22;15994;51.796;13.006;2023-05-31T16:45:48;27.90;56.40
28863;DHT22;15994;51.796;13.006;2023-05-31T16:48:15;28.30;55.20
28863;DHT22;15994;51.796;13.006;2023-05-31T16:50:42;27.80;54.90
28863;DHT22;15994;51.796;13.006;2023-05-31T16:53:09;27.70;55.60
28863;DHT22;15994;51.796;13.006;2023-05-31T16:55:36;28.10;55.10
28863;DHT22;15994;51.796;13.006;2023-05-31T16:58:03;27.60;55.50
28863;DHT22;15994;51.796;13.006;2023-05-31T17:00:29;27.90;54.30
28863;DHT22;15994;51.796;13.006;2023-05-31T17:02:56;28.30;54.30
28863;DHT22;15994;51.796;13.006;2023-05-31T17:05:23;28.10;54.20
28863;DHT22;15994;51.796;13.006;2023-05-31T17:07:49;28.10;54.00
28863;DHT22;15994;51.796;13.006;2023-05-31T17:10:16;28.10;55.00
28863;DHT22;15994;51.796;13.006;2023-05-31T17:12:43;28.10;54.90
28863;DHT22;15994;51.796;13.006;2023-05-31T17:15:12;28.20;53.60
28863;DHT22;15994;51.796;13.006;2023-05-31T17:17:39;28.20;54.20
28863;DHT22;15994;51.796;13.006;2023-05-31T17:20:07;28.40;53.00
28863;DHT22;15994;51.796;13.006;2023-05-31T17:22:35;28.10;53.40
28863;DHT22;15994;51.796;13.006;2023-05-31T17:25:03;28.30;53.70
28863;DHT22;15994;51.796;13.006;2023-05-31T17:27:30;28.10;53.80
28863;DHT22;15994;51.796;13.006;2023-05-31T17:29:58;28.10;53.30
28863;DHT22;15994;51.796;13.006;2023-05-31T17:32:25;28.00;53.70
28863;DHT22;15994;51.796;13.006;2023-05-31T17:34:52;27.60;53.60
28863;DHT22;15994;51.796;13.006;2023-05-31T17:37:18;27.90;52.60
28863;DHT22;15994;51.796;13.006;2023-05-31T17:39:46;27.60;52.80
28863;DHT22;15994;51.796;13.006;2023-05-31T17:42:13;27.70;52.60
28863;DHT22;15994;51.796;13.006;2023-05-31T17:44:39;27.70;52.10
28863;DHT22;15994;51.796;13.006;2023-05-31T17:47:06;27.90;52.90
28863;DHT22;15994;51.796;13.006;2023-05-31T17:49:36;27.60;52.20
28863;DHT22;15994;51.796;13.006;2023-05-31T17:52:03;27.50;53.10
28863;DHT22;15994;51.796;13.006;2023-05-31T17:54:30;27.50;53.70
28863;DHT22;15994;51.796;13.006;2023-05-31T17:56:56;27.20;52.70
28863;DHT22;15994;51.796;13.006;2023-05-31T17:59:23;26.90;52.70
28863;DHT22;15994;51.796;13.006;2023-05-31T18:01:50;26.80;53.90
28863;DHT22;15994;51.796;13.006;2023-05-31T18:04:17;27.10;53.60
28863;DHT22;15994;51.796;13.006;2023-05-31T18:06:43;27.20;53.30
28863;DHT22;15994;51.796;13.006;2023-05-31T18:09:11;27.00;54.20
28863;DHT22;15994;51.796;13.006;2023-05-31T18:11:37;26.90;53.70
28863;DHT22;15994;51.796;13.006;2023-05-31T18:14:05;26.90;53.90
28863;DHT22;15994;51.796;13.006;2023-05-31T18:16:31;26.70;53.90
28863;DHT22;15994;51.796;13.006;2023-05-31T18:18:58;26.70;54.30
28863;DHT22;15994;51.796;13.006;2023-05-31T18:21:25;26.50;55.40
28863;DHT22;15994;51.796;13.006;2023-05-31T18:23:51;26.00;54.80
28863;DHT22;15994;51.796;13.006;2023-05-31T18:26:18;25.90;55.60
28863;DHT22;15994;51.796;13.006;2023-05-31T18:28:45;25.70;56.20
28863;DHT22;15994;51.796;13.006;2023-05-31T18:31:13;25.50;56.00
28863;DHT22;15994;51.796;13.006;2023-05-31T18:33:39;25.30;56.90
28863;DHT22;15994;51.796;13.006;2023-05-31T18:36:06;25.20;57.90
28863;DHT22;15994;51.796;13.006;2023-05-31T18:38:43;25.10;58.20
28863;DHT22;15994;51.796;13.006;2023-05-31T18:41:10;25.10;57.70
28863;DHT22;15994;51.796;13.006;2023-05-31T18:43:37;24.80;58.90
28863;DHT22;15994;51.796;13.006;2023-05-31T18:46:03;24.70;59.10
28863;DHT22;15994;51.796;13.006;2023-05-31T18:48:30;24.60;58.80
28863;DHT22;15994;51.796;13.006;2023-05-31T18:50:59;24.60;62.20
28863;DHT22;15994;51.796;13.006;2023-05-31T18:53:27;24.40;63.80
28863;DHT22;15994;51.796;13.006;2023-05-31T18:55:54;24.20;62.20
28863;DHT22;15994;51.796;13.006;2023-05-31T18:58:21;23.90;61.70
28863;DHT22;15994;51.796;13.006;2023-05-31T19:00:47;23.70;64.10
28863;DHT22;15994;51.796;13.006;2023-05-31T19:03:15;23.60;64.00
28863;DHT22;15994;51.796;13.006;2023-05-31T19:05:41;23.40;64.60
28863;DHT22;15994;51.796;13.006;2023-05-31T19:08:08;23.30;65.00
28863;DHT22;15994;51.796;13.006;2023-05-31T19:10:35;23.10;64.60
28863;DHT22;15994;51.796;13.006;2023-05-31T19:13:01;22.70;66.40
28863;DHT22;15994;51.796;13.006;2023-05-31T19:15:28;22.50;67.00
28863;DHT22;15994;51.796;13.006;2023-05-31T19:17:55;22.40;66.30
28863;DHT22;15994;51.796;13.006;2023-05-31T19:20:22;22.20;67.20
28863;DHT22;15994;51.796;13.006;2023-05-31T19:22:50;22.10;67.50